sensor_id;sensor_type;location;lat;lon;timestamp;pressure;altitude;pressure_sealevel;temperature;humidity
16331;BME280;8275;48.206;16.340;2024-03-08T00:00:37;99627.38;;;10.59;42.70
16331;BME280;8275;48.206;16.340;2024-03-08T00:03:09;99633.97;;;10.58;42.60
16331;BME280;8275;48.206;16.340;2024-03-08T00:05:38;99629.81;;;10.55;42.42
16331;BME280;8275;48.206;16.340;2024-03-08T00:08:07;99624.59;;;10.54;42.57
16331;BME280;8275;48.206;16.340;2024-03-08T00:10:37;99631.97;;;10.53;42.20
16331;BME280;8275;48.206;16.340;2024-03-08T00:13:06;99633.63;;;10.54;42.45
16331;BME280;8275;48.206;16.340;2024-03-08T00:15:34;99628.13;;;10.54;42.68
16331;BME280;8275;48.206;16.340;2024-03-08T00:18:04;99632.56;;;10.55;42.71
16331;BME280;8275;48.206;16.340;2024-03-08T00:20:34;99626.75;;;10.52;42.53
16331;BME280;8275;48.206;16.340;2024-03-08T00:23:02;99628.66;;;10.51;42.09
16331;BME280;8275;48.206;16.340;2024-03-08T00:25:31;99625.91;;;10.51;42.40
16331;BME280;8275;48.206;16.340;2024-03-08T00:27:59;99622.34;;;10.51;42.52
16331;BME280;8275;48.206;16.340;2024-03-08T00:30:27;99625.06;;;10.51;42.50
16331;BME280;8275;48.206;16.340;2024-03-08T00:32:56;99628.88;;;10.50;42.47
16331;BME280;8275;48.206;16.340;2024-03-08T00:35:25;99629.97;;;10.49;42.65
16331;BME280;8275;48.206;16.340;2024-03-08T00:37:55;99636.50;;;10.48;42.30
16331;BME280;8275;48.206;16.340;2024-03-08T00:40:23;99638.44;;;10.47;42.54
16331;BME280;8275;48.206;16.340;2024-03-08T00:42:52;99633.19;;;10.46;42.92
16331;BME280;8275;48.206;16.340;2024-03-08T00:45:21;99639.78;;;10.45;42.64
16331;BME280;8275;48.206;16.340;2024-03-08T00:47:50;99619.75;;;10.44;42.98
16331;BME280;8275;48.206;16.340;2024-03-08T00:50:19;99624.66;;;10.42;43.24
16331;BME280;8275;48.206;16.340;2024-03-08T00:52:47;99622.41;;;10.39;43.11
16331;BME280;8275;48.206;16.340;2024-03-08T00:55:18;99619.09;;;10.37;43.25
16331;BME280;8275;48.206;16.340;2024-03-08T00:57:46;99614.94;;;10.35;43.19
16331;BME280;8275;48.206;16.340;2024-03-08T01:00:16;99618.66;;;10.29;43.17
16331;BME280;8275;48.206;16.340;2024-03-08T01:02:44;99618.03;;;10.27;43.37
16331;BME280;8275;48.206;16.340;2024-03-08T01:05:13;99618.78;;;10.22;43.13
16331;BME280;8275;48.206;16.340;2024-03-08T01:07:42;99614.03;;;10.18;43.32
16331;BME280;8275;48.206;16.340;2024-03-08T01:10:13;99609.91;;;10.15;43.35
16331;BME280;8275;48.206;16.340;2024-03-08T01:12:43;99617.53;;;10.13;43.88
16331;BME280;8275;48.206;16.340;2024-03-08T01:15:12;99606.81;;;10.12;43.58
16331;BME280;8275;48.206;16.340;2024-03-08T01:17:41;99608.13;;;10.09;43.86
16331;BME280;8275;48.206;16.340;2024-03-08T01:20:11;99599.00;;;10.04;44.06
16331;BME280;8275;48.206;16.340;2024-03-08T01:22:41;99607.44;;;10.02;43.84
16331;BME280;8275;48.206;16.340;2024-03-08T01:25:10;99602.69;;;9.98;43.87
16331;BME280;8275;48.206;16.340;2024-03-08T01:27:38;99598.78;;;9.94;44.17
16331;BME280;8275;48.206;16.340;2024-03-08T01:30:09;99590.47;;;9.88;44.22
16331;BME280;8275;48.206;16.340;2024-03-08T01:32:38;99598.94;;;9.87;44.65
16331;BME280;8275;48.206;16.340;2024-03-08T01:35:07;99598.84;;;9.82;44.60
16331;BME280;8275;48.206;16.340;2024-03-08T01:37:37;99591.59;;;9.76;44.61
16331;BME280;8275;48.206;16.340;2024-03-08T01:40:07;99594.81;;;9.73;44.70
16331;BME280;8275;48.206;16.340;2024-03-08T01:42:36;99586.88;;;9.71;44.59
16331;BME280;8275;48.206;16.340;2024-03-08T01:45:08;99590.66;;;9.70;45.12
16331;BME280;8275;48.206;16.340;2024-03-08T01:47:37;99583.03;;;9.72;45.13
16331;BME280;8275;48.206;16.340;2024-03-08T01:50:07;99589.34;;;9.73;44.92
16331;BME280;8275;48.206;16.340;2024-03-08T01:52:38;99589.94;;;9.75;45.27
16331;BME280;8275;48.206;16.340;2024-03-08T01:55:07;99586.63;;;9.73;45.20
16331;BME280;8275;48.206;16.340;2024-03-08T01:57:36;99589.69;;;9.76;45.20
16331;BME280;8275;48.206;16.340;2024-03-08T02:00:08;99581.47;;;9.76;45.27
16331;BME280;8275;48.206;16.340;2024-03-08T02:02:40;99583.97;;;9.78;45.14
16331;BME280;8275;48.206;16.340;2024-03-08T02:05:10;99582.66;;;9.80;45.17
16331;BME280;8275;48.206;16.340;2024-03-08T02:07:41;99582.41;;;9.82;45.51
16331;BME280;8275;48.206;16.340;2024-03-08T02:10:11;99581.56;;;9.81;45.37
16331;BME280;8275;48.206;16.340;2024-03-08T02:12:40;99574.22;;;9.82;45.42
16331;BME280;8275;48.206;16.340;2024-03-08T02:15:10;99585.41;;;9.80;45.72
16331;BME280;8275;48.206;16.340;2024-03-08T02:17:39;99585.16;;;9.82;45.70
16331;BME280;8275;48.206;16.340;2024-03-08T02:20:10;99580.75;;;9.81;45.86
16331;BME280;8275;48.206;16.340;2024-03-08T02:22:42;99582.06;;;9.78;45.61
16331;BME280;8275;48.206;16.340;2024-03-08T02:25:11;99587.78;;;9.77;45.58
16331;BME280;8275;48.206;16.340;2024-03-08T02:27:39;99581.72;;;9.75;45.76
16331;BME280;8275;48.206;16.340;2024-03-08T02:30:10;99591.00;;;9.74;45.50
16331;BME280;8275;48.206;16.340;2024-03-08T02:32:40;99582.56;;;9.75;45.63
16331;BME280;8275;48.206;16.340;2024-03-08T02:35:11;99587.66;;;9.72;45.61
16331;BME280;8275;48.206;16.340;2024-03-08T02:37:41;99583.88;;;9.73;45.39
16331;BME280;8275;48.206;16.340;2024-03-08T02:40:11;99580.56;;;9.71;45.87
16331;BME280;8275;48.206;16.340;2024-03-08T02:42:40;99582.72;;;9.69;45.71
16331;BME280;8275;48.206;16.340;2024-03-08T02:45:09;99579.88;;;9.64;45.51
16331;BME280;8275;48.206;16.340;2024-03-08T02:47:38;99578.44;;;9.61;45.73
16331;BME280;8275;48.206;16.340;2024-03-08T02:50:07;99567.97;;;9.58;45.72
16331;BME280;8275;48.206;16.340;2024-03-08T02:52:36;99575.13;;;9.59;45.95
16331;BME280;8275;48.206;16.340;2024-03-08T02:55:07;99579.16;;;9.57;45.88
16331;BME280;8275;48.206;16.340;2024-03-08T02:57:41;99577.50;;;9.56;46.04
16331;BME280;8275;48.206;16.340;2024-03-08T03:00:11;99577.75;;;9.54;45.86
16331;BME280;8275;48.206;16.340;2024-03-08T03:02:41;99582.16;;;9.55;46.03
16331;BME280;8275;48.206;16.340;2024-03-08T03:05:10;99576.69;;;9.55;46.22
16331;BME280;8275;48.206;16.340;2024-03-08T03:07:38;99580.47;;;9.54;45.91
16331;BME280;8275;48.206;16.340;2024-03-08T03:10:09;99582.16;;;9.55;46.08
16331;BME280;8275;48.206;16.340;2024-03-08T03:12:39;99574.75;;;9.56;46.21
16331;BME280;8275;48.206;16.340;2024-03-08T03:15:08;99576.19;;;9.58;46.22
16331;BME280;8275;48.206;16.340;2024-03-08T03:17:38;99577.59;;;9.61;46.05
16331;BME280;8275;48.206;16.340;2024-03-08T03:20:08;99574.03;;;9.60;45.92
16331;BME280;8275;48.206;16.340;2024-03-08T03:22:41;99574.88;;;9.61;46.08
16331;BME280;8275;48.206;16.340;2024-03-08T03:25:15;99567.50;;;9.61;46.21
16331;BME280;8275;48.206;16.340;2024-03-08T03:27:51;99566.66;;;9.61;46.19
16331;BME280;8275;48.206;16.340;2024-03-08T03:30:20;99560.34;;;9.60;46.18
16331;BME280;8275;48.206;16.340;2024-03-08T03:32:49;99562.63;;;9.63;46.25
16331;BME280;8275;48.206;16.340;2024-03-08T03:35:18;99573.09;;;9.66;46.26
16331;BME280;8275;48.206;16.340;2024-03-08T03:37:48;99569.50;;;9.66;46.18
16331;BME280;8275;48.206;16.340;2024-03-08T03:40:30;99563.78;;;9.67;46.57
16331;BME280;8275;48.206;16.340;2024-03-08T03:42:58;99561.63;;;9.69;46.06
16331;BME280;8275;48.206;16.340;2024-03-08T03:45:27;99561.41;;;9.71;46.33
16331;BME280;8275;48.206;16.340;2024-03-08T03:47:55;99559.00;;;9.74;46.55
16331;BME280;8275;48.206;16.340;2024-03-08T03:50:23;99560.41;;;9.77;46.37
16331;BME280;8275;48.206;16.340;2024-03-08T03:52:51;99559.94;;;9.80;46.32
16331;BME280;8275;48.206;16.340;2024-03-08T03:55:20;99552.31;;;9.82;46.70
16331;BME280;8275;48.206;16.340;2024-03-08T03:57:50;99559.69;;;9.81;46.41
16331;BME280;8275;48.206;16.340;2024-03-08T04:00:19;99559.94;;;9.80;46.57
16331;BME280;8275;48.206;16.340;2024-03-08T04:02:48;99558.03;;;9.80;46.16
16331;BME280;8275;48.206;16.340;2024-03-08T04:05:18;99546.25;;;9.80;46.35
16331;BME280;8275;48.206;16.340;2024-03-08T04:07:47;99558.03;;;9.80;46.46
16331;BME280;8275;48.206;16.340;2024-03-08T04:10:15;99558.03;;;9.80;46.55
16331;BME280;8275;48.206;16.340;2024-03-08T04:12:44;99553.16;;;9.82;46.40
16331;BME280;8275;48.206;16.340;2024-03-08T04:15:14;99558.38;;;9.84;46.75
16331;BME280;8275;48.206;16.340;2024-03-08T04:17:43;99559.78;;;9.86;46.42
16331;BME280;8275;48.206;16.340;2024-03-08T04:20:13;99560.38;;;9.88;46.34
16331;BME280;8275;48.206;16.340;2024-03-08T04:22:42;99559.31;;;9.89;46.14
16331;BME280;8275;48.206;16.340;2024-03-08T04:25:11;99559.06;;;9.91;46.32
16331;BME280;8275;48.206;16.340;2024-03-08T04:27:40;99553.09;;;9.94;46.56
16331;BME280;8275;48.206;16.340;2024-03-08T04:30:13;99553.69;;;9.96;46.23
16331;BME280;8275;48.206;16.340;2024-03-08T04:32:44;99549.38;;;10.00;46.52
16331;BME280;8275;48.206;16.340;2024-03-08T04:35:12;99548.88;;;10.03;46.45
16331;BME280;8275;48.206;16.340;2024-03-08T04:37:42;99541.84;;;10.07;46.69
16331;BME280;8275;48.206;16.340;2024-03-08T04:40:12;99552.53;;;10.09;46.16
16331;BME280;8275;48.206;16.340;2024-03-08T04:42:41;99546.84;;;10.10;46.21
16331;BME280;8275;48.206;16.340;2024-03-08T04:45:10;99555.03;;;10.10;46.15
16331;BME280;8275;48.206;16.340;2024-03-08T04:47:40;99542.81;;;10.13;46.26
16331;BME280;8275;48.206;16.340;2024-03-08T04:50:09;99546.34;;;10.13;46.49
16331;BME280;8275;48.206;16.340;2024-03-08T04:52:38;99544.22;;;10.15;46.37
16331;BME280;8275;48.206;16.340;2024-03-08T04:55:09;99544.22;;;10.15;46.47
16331;BME280;8275;48.206;16.340;2024-03-08T04:57:37;99553.25;;;10.16;45.90
16331;BME280;8275;48.206;16.340;2024-03-08T05:00:07;99546.13;;;10.15;46.35
16331;BME280;8275;48.206;16.340;2024-03-08T05:02:40;99548.59;;;10.16;46.04
16331;BME280;8275;48.206;16.340;2024-03-08T05:05:09;99551.09;;;10.18;46.28
16331;BME280;8275;48.206;16.340;2024-03-08T05:07:39;99549.75;;;10.20;46.19
16331;BME280;8275;48.206;16.340;2024-03-08T05:10:08;99547.84;;;10.21;46.38
16331;BME280;8275;48.206;16.340;2024-03-08T05:12:37;99548.44;;;10.23;46.03
16331;BME280;8275;48.206;16.340;2024-03-08T05:15:07;99544.88;;;10.22;46.11
16331;BME280;8275;48.206;16.340;2024-03-08T05:17:36;99555.81;;;10.22;46.05
16331;BME280;8275;48.206;16.340;2024-03-08T05:20:07;99551.44;;;10.21;45.90
16331;BME280;8275;48.206;16.340;2024-03-08T05:22:39;99553.91;;;10.23;46.21
16331;BME280;8275;48.206;16.340;2024-03-08T05:25:09;99551.19;;;10.23;46.39
16331;BME280;8275;48.206;16.340;2024-03-08T05:27:37;99553.44;;;10.26;46.12
16331;BME280;8275;48.206;16.340;2024-03-08T05:30:07;99546.84;;;10.27;46.33
16331;BME280;8275;48.206;16.340;2024-03-08T05:32:41;99543.91;;;10.28;46.23
16331;BME280;8275;48.206;16.340;2024-03-08T05:35:13;99549.38;;;10.28;46.04
16331;BME280;8275;48.206;16.340;2024-03-08T05:37:43;99544.72;;;10.29;46.21
16331;BME280;8275;48.206;16.340;2024-03-08T05:40:12;99555.44;;;10.30;45.87
16331;BME280;8275;48.206;16.340;2024-03-08T05:42:45;99555.16;;;10.32;46.24
16331;BME280;8275;48.206;16.340;2024-03-08T05:45:13;99558.47;;;10.34;45.92
16331;BME280;8275;48.206;16.340;2024-03-08T05:47:42;99561.56;;;10.37;46.25
16331;BME280;8275;48.206;16.340;2024-03-08T05:50:12;99558.56;;;10.39;46.12
16331;BME280;8275;48.206;16.340;2024-03-08T05:52:44;99565.47;;;10.41;46.31
16331;BME280;8275;48.206;16.340;2024-03-08T05:55:12;99562.72;;;10.41;45.82
16331;BME280;8275;48.206;16.340;2024-03-08T05:57:41;99555.94;;;10.44;46.07
16331;BME280;8275;48.206;16.340;2024-03-08T06:00:11;99556.50;;;10.46;46.25
16331;BME280;8275;48.206;16.340;2024-03-08T06:02:40;99558.50;;;10.50;45.85
16331;BME280;8275;48.206;16.340;2024-03-08T06:05:09;99549.22;;;10.51;45.98
16331;BME280;8275;48.206;16.340;2024-03-08T06:07:40;99549.31;;;10.56;46.16
16331;BME280;8275;48.206;16.340;2024-03-08T06:10:10;99562.47;;;10.59;46.16
16331;BME280;8275;48.206;16.340;2024-03-08T06:12:40;99559.50;;;10.61;46.13
16331;BME280;8275;48.206;16.340;2024-03-08T06:15:10;99553.78;;;10.63;46.12
16331;BME280;8275;48.206;16.340;2024-03-08T06:17:42;99547.81;;;10.66;45.79
16331;BME280;8275;48.206;16.340;2024-03-08T06:20:11;99546.47;;;10.68;45.65
16331;BME280;8275;48.206;16.340;2024-03-08T06:22:42;99550.59;;;10.71;46.06
16331;BME280;8275;48.206;16.340;2024-03-08T06:25:12;99549.53;;;10.72;46.03
16331;BME280;8275;48.206;16.340;2024-03-08T06:27:42;99550.09;;;10.74;45.59
16331;BME280;8275;48.206;16.340;2024-03-08T06:30:11;99560.00;;;10.75;45.68
16331;BME280;8275;48.206;16.340;2024-03-08T06:32:40;99560.56;;;10.77;45.74
16331;BME280;8275;48.206;16.340;2024-03-08T06:35:10;99561.41;;;10.77;46.03
16331;BME280;8275;48.206;16.340;2024-03-08T06:37:39;99570.22;;;10.79;45.48
16331;BME280;8275;48.206;16.340;2024-03-08T06:40:12;99565.31;;;10.81;46.13
16331;BME280;8275;48.206;16.340;2024-03-08T06:42:42;99568.34;;;10.85;45.71
16331;BME280;8275;48.206;16.340;2024-03-08T06:45:10;99561.31;;;10.89;46.13
16331;BME280;8275;48.206;16.340;2024-03-08T06:47:40;99567.94;;;10.93;46.04
16331;BME280;8275;48.206;16.340;2024-03-08T06:50:10;99567.47;;;10.96;46.01
16331;BME280;8275;48.206;16.340;2024-03-08T06:52:39;99570.25;;;11.01;46.21
16331;BME280;8275;48.206;16.340;2024-03-08T06:55:11;99566.75;;;11.05;45.81
16331;BME280;8275;48.206;16.340;2024-03-08T06:57:40;99571.75;;;11.08;46.03
16331;BME280;8275;48.206;16.340;2024-03-08T07:00:10;99569.84;;;11.09;46.18
16331;BME280;8275;48.206;16.340;2024-03-08T07:02:45;99565.19;;;11.09;46.13
16331;BME280;8275;48.206;16.340;2024-03-08T07:05:16;99563.50;;;11.08;45.68
16331;BME280;8275;48.206;16.340;2024-03-08T07:07:45;99562.75;;;11.13;45.88
16331;BME280;8275;48.206;16.340;2024-03-08T07:10:17;99562.25;;;11.16;46.15
16331;BME280;8275;48.206;16.340;2024-03-08T07:12:46;99569.19;;;11.23;46.12
16331;BME280;8275;48.206;16.340;2024-03-08T07:15:15;99561.31;;;11.27;45.92
16331;BME280;8275;48.206;16.340;2024-03-08T07:17:46;99560.84;;;11.35;45.72
16331;BME280;8275;48.206;16.340;2024-03-08T07:20:16;99557.94;;;11.42;45.55
16331;BME280;8275;48.206;16.340;2024-03-08T07:22:46;99556.84;;;11.43;45.95
16331;BME280;8275;48.206;16.340;2024-03-08T07:25:18;99561.84;;;11.46;45.93
16331;BME280;8275;48.206;16.340;2024-03-08T07:27:51;99545.63;;;11.66;45.38
16331;BME280;8275;48.206;16.340;2024-03-08T07:30:22;99556.69;;;11.71;45.73
16331;BME280;8275;48.206;16.340;2024-03-08T07:33:22;99555.97;;;11.80;45.37
16331;BME280;8275;48.206;16.340;2024-03-08T07:35:51;99559.03;;;11.84;45.40
16331;BME280;8275;48.206;16.340;2024-03-08T07:38:19;99552.19;;;11.86;45.40
16331;BME280;8275;48.206;16.340;2024-03-08T07:40:50;99558.25;;;11.88;45.29
16331;BME280;8275;48.206;16.340;2024-03-08T07:43:18;99561.84;;;11.89;45.01
16331;BME280;8275;48.206;16.340;2024-03-08T07:45:46;99558.25;;;11.88;45.39
16331;BME280;8275;48.206;16.340;2024-03-08T07:48:15;99561.31;;;11.92;45.30
16331;BME280;8275;48.206;16.340;2024-03-08T07:50:44;99569.03;;;11.95;45.10
16331;BME280;8275;48.206;16.340;2024-03-08T07:53:12;99560.28;;;11.98;45.00
16331;BME280;8275;48.206;16.340;2024-03-08T07:55:41;99565.78;;;11.98;45.03
16331;BME280;8275;48.206;16.340;2024-03-08T07:58:13;99560.78;;;11.95;45.04
16331;BME280;8275;48.206;16.340;2024-03-08T08:00:41;99559.72;;;11.96;45.05
16331;BME280;8275;48.206;16.340;2024-03-08T08:03:10;99564.13;;;11.97;45.37
16331;BME280;8275;48.206;16.340;2024-03-08T08:05:39;99564.06;;;11.92;45.14
16331;BME280;8275;48.206;16.340;2024-03-08T08:08:08;99574.16;;;11.86;45.22
16331;BME280;8275;48.206;16.340;2024-03-08T08:10:38;99566.13;;;11.80;45.22
16331;BME280;8275;48.206;16.340;2024-03-08T08:13:07;99569.13;;;11.78;45.29
16331;BME280;8275;48.206;16.340;2024-03-08T08:15:37;99573.47;;;11.74;45.37
16331;BME280;8275;48.206;16.340;2024-03-08T08:18:05;99564.09;;;11.70;45.23
16331;BME280;8275;48.206;16.340;2024-03-08T08:20:37;99561.84;;;11.67;45.37
16331;BME280;8275;48.206;16.340;2024-03-08T08:23:05;99567.09;;;11.69;45.65
16331;BME280;8275;48.206;16.340;2024-03-08T08:25:34;99565.19;;;11.69;45.71
16331;BME280;8275;48.206;16.340;2024-03-08T08:28:03;99572.88;;;11.72;45.33
16331;BME280;8275;48.206;16.340;2024-03-08T08:30:32;99566.31;;;11.73;45.70
16331;BME280;8275;48.206;16.340;2024-03-08T08:33:02;99570.41;;;11.71;45.60
16331;BME280;8275;48.206;16.340;2024-03-08T08:35:33;99572.59;;;11.69;45.94
16331;BME280;8275;48.206;16.340;2024-03-08T08:38:01;99574.50;;;11.68;45.77
16331;BME280;8275;48.206;16.340;2024-03-08T08:40:31;99569.75;;;11.64;45.61
16331;BME280;8275;48.206;16.340;2024-03-08T08:43:00;99576.56;;;11.61;45.90
16331;BME280;8275;48.206;16.340;2024-03-08T08:45:31;99575.72;;;11.61;45.56
16331;BME280;8275;48.206;16.340;2024-03-08T08:48:01;99567.25;;;11.62;45.71
16331;BME280;8275;48.206;16.340;2024-03-08T08:50:32;99568.06;;;11.63;45.63
16331;BME280;8275;48.206;16.340;2024-03-08T08:53:01;99566.44;;;11.62;45.82
16331;BME280;8275;48.206;16.340;2024-03-08T08:55:31;99577.34;;;11.57;45.54
16331;BME280;8275;48.206;16.340;2024-03-08T08:58:03;99570.44;;;11.54;45.89
16331;BME280;8275;48.206;16.340;2024-03-08T09:00:32;99578.38;;;11.51;45.69
16331;BME280;8275;48.206;16.340;2024-03-08T09:03:03;99572.88;;;11.51;45.83
16331;BME280;8275;48.206;16.340;2024-03-08T09:05:33;99569.88;;;11.52;46.05
16331;BME280;8275;48.206;16.340;2024-03-08T09:08:06;99566.63;;;11.55;45.99
16331;BME280;8275;48.206;16.340;2024-03-08T09:10:35;99571.84;;;11.57;45.84
16331;BME280;8275;48.206;16.340;2024-03-08T09:13:06;99566.69;;;11.60;46.13
16331;BME280;8275;48.206;16.340;2024-03-08T09:15:44;99570.81;;;11.63;45.89
16331;BME280;8275;48.206;16.340;2024-03-08T09:18:14;99562.91;;;11.66;46.24
16331;BME280;8275;48.206;16.340;2024-03-08T09:20:42;99558.31;;;11.72;46.17
16331;BME280;8275;48.206;16.340;2024-03-08T09:23:11;99558.66;;;11.75;46.22
16331;BME280;8275;48.206;16.340;2024-03-08T09:25:39;99561.97;;;11.77;46.30
16331;BME280;8275;48.206;16.340;2024-03-08T09:28:09;99564.22;;;11.80;46.07
16331;BME280;8275;48.206;16.340;2024-03-08T09:30:39;99562.03;;;11.82;46.18
16331;BME280;8275;48.206;16.340;2024-03-08T09:33:15;99557.94;;;11.85;46.07
16331;BME280;8275;48.206;16.340;2024-03-08T09:35:46;99551.13;;;11.87;46.28
16331;BME280;8275;48.206;16.340;2024-03-08T09:38:15;99566.81;;;11.92;46.13
16331;BME280;8275;48.206;16.340;2024-03-08T09:40:43;99559.72;;;11.96;46.13
16331;BME280;8275;48.206;16.340;2024-03-08T09:43:13;99560.63;;;12.02;46.16
16331;BME280;8275;48.206;16.340;2024-03-08T09:45:42;99561.19;;;12.04;45.92
16331;BME280;8275;48.206;16.340;2024-03-08T09:48:15;99559.25;;;12.04;46.11
16331;BME280;8275;48.206;16.340;2024-03-08T09:50:44;99557.66;;;12.08;46.45
16331;BME280;8275;48.206;16.340;2024-03-08T09:53:12;99554.97;;;12.13;46.26
16331;BME280;8275;48.206;16.340;2024-03-08T09:55:42;99548.94;;;12.16;46.12
16331;BME280;8275;48.206;16.340;2024-03-08T09:58:12;99554.19;;;12.18;46.18
16331;BME280;8275;48.206;16.340;2024-03-08T10:01:21;99545.94;;;12.18;46.03
16331;BME280;8275;48.206;16.340;2024-03-08T10:03:52;99545.47;;;12.26;46.25
16331;BME280;8275;48.206;16.340;2024-03-08T10:06:23;99546.69;;;12.40;46.38
16331;BME280;8275;48.206;16.340;2024-03-08T10:08:52;99542.72;;;12.57;46.56
16331;BME280;8275;48.206;16.340;2024-03-08T10:11:20;99543.97;;;12.77;46.60
16331;BME280;8275;48.206;16.340;2024-03-08T10:13:50;99528.97;;;12.94;46.30
16331;BME280;8275;48.206;16.340;2024-03-08T10:16:18;99540.38;;;13.13;46.20
16331;BME280;8275;48.206;16.340;2024-03-08T10:18:47;99535.56;;;13.35;45.88
16331;BME280;8275;48.206;16.340;2024-03-08T10:21:17;99530.13;;;13.50;45.86
16331;BME280;8275;48.206;16.340;2024-03-08T10:23:46;99529.88;;;13.62;45.62
16331;BME280;8275;48.206;16.340;2024-03-08T10:26:16;99527.72;;;13.69;45.44
16331;BME280;8275;48.206;16.340;2024-03-08T10:28:48;99528.56;;;13.74;45.41
16331;BME280;8275;48.206;16.340;2024-03-08T10:31:17;99526.94;;;13.78;45.39
16331;BME280;8275;48.206;16.340;2024-03-08T10:33:46;99526.38;;;13.86;45.31
16331;BME280;8275;48.206;16.340;2024-03-08T10:36:17;99541.00;;;13.92;45.15
16331;BME280;8275;48.206;16.340;2024-03-08T10:38:51;99535.25;;;14.03;45.14
16331;BME280;8275;48.206;16.340;2024-03-08T10:41:23;99520.94;;;14.17;44.83
16331;BME280;8275;48.206;16.340;2024-03-08T10:44:10;99533.91;;;14.26;44.65
16331;BME280;8275;48.206;16.340;2024-03-08T10:46:55;99530.38;;;14.36;44.40
16331;BME280;8275;48.206;16.340;2024-03-08T10:49:32;99527.06;;;14.44;44.37
16331;BME280;8275;48.206;16.340;2024-03-08T10:52:04;99524.31;;;14.49;44.06
16331;BME280;8275;48.206;16.340;2024-03-08T10:54:37;99525.94;;;14.60;43.99
16331;BME280;8275;48.206;16.340;2024-03-08T10:57:13;99517.41;;;14.76;44.05
16331;BME280;8275;48.206;16.340;2024-03-08T10:59:43;99513.50;;;14.98;43.79
16331;BME280;8275;48.206;16.340;2024-03-08T11:02:12;99509.06;;;15.12;43.63
16331;BME280;8275;48.206;16.340;2024-03-08T11:04:46;99507.38;;;15.21;43.14
16331;BME280;8275;48.206;16.340;2024-03-08T11:07:17;99507.38;;;15.26;42.80
16331;BME280;8275;48.206;16.340;2024-03-08T11:09:48;99495.19;;;15.32;42.56
16331;BME280;8275;48.206;16.340;2024-03-08T11:12:24;99497.03;;;15.57;42.65
16331;BME280;8275;48.206;16.340;2024-03-08T11:14:54;99495.34;;;15.66;42.41
16331;BME280;8275;48.206;16.340;2024-03-08T11:17:45;99489.00;;;15.65;41.92
16331;BME280;8275;48.206;16.340;2024-03-08T11:20:15;99485.72;;;15.63;41.46
16331;BME280;8275;48.206;16.340;2024-03-08T11:22:50;99488.22;;;15.55;41.40
16331;BME280;8275;48.206;16.340;2024-03-08T11:25:34;99479.69;;;15.51;41.42
16331;BME280;8275;48.206;16.340;2024-03-08T11:28:14;99473.03;;;15.52;41.39
16331;BME280;8275;48.206;16.340;2024-03-08T11:30:46;99468.63;;;15.56;41.40
16331;BME280;8275;48.206;16.340;2024-03-08T11:33:16;99480.22;;;15.58;41.01
16331;BME280;8275;48.206;16.340;2024-03-08T11:35:46;99470.41;;;15.81;40.73
16331;BME280;8275;48.206;16.340;2024-03-08T11:38:17;99470.34;;;16.30;40.72
16331;BME280;8275;48.206;16.340;2024-03-08T11:40:46;99458.19;;;16.64;40.15
16331;BME280;8275;48.206;16.340;2024-03-08T11:43:17;99458.31;;;16.78;39.58
16331;BME280;8275;48.206;16.340;2024-03-08T11:45:47;99461.09;;;16.78;39.04
16331;BME280;8275;48.206;16.340;2024-03-08T11:48:15;99453.09;;;16.71;38.94
16331;BME280;8275;48.206;16.340;2024-03-08T11:50:44;99460.16;;;16.59;38.71
16331;BME280;8275;48.206;16.340;2024-03-08T11:53:12;99454.69;;;16.49;38.40
16331;BME280;8275;48.206;16.340;2024-03-08T11:55:42;99454.78;;;16.39;38.76
16331;BME280;8275;48.206;16.340;2024-03-08T11:58:12;99447.38;;;16.34;38.75
16331;BME280;8275;48.206;16.340;2024-03-08T12:00:41;99446.22;;;16.35;38.84
16331;BME280;8275;48.206;16.340;2024-03-08T12:03:09;99445.13;;;16.36;38.57
16331;BME280;8275;48.206;16.340;2024-03-08T12:05:38;99442.41;;;16.31;38.57
16331;BME280;8275;48.206;16.340;2024-03-08T12:08:06;99436.94;;;16.21;38.49
16331;BME280;8275;48.206;16.340;2024-03-08T12:10:42;99435.13;;;16.11;38.25
16331;BME280;8275;48.206;16.340;2024-03-08T12:13:11;99434.06;;;16.02;38.44
16331;BME280;8275;48.206;16.340;2024-03-08T12:15:41;99432.22;;;15.93;38.37
16331;BME280;8275;48.206;16.340;2024-03-08T12:18:11;99430.59;;;15.82;38.89
16331;BME280;8275;48.206;16.340;2024-03-08T12:20:40;99430.97;;;15.70;38.70
16331;BME280;8275;48.206;16.340;2024-03-08T12:23:14;99434.91;;;15.59;38.52
16331;BME280;8275;48.206;16.340;2024-03-08T12:25:45;99436.59;;;15.50;38.86
16331;BME280;8275;48.206;16.340;2024-03-08T12:28:15;99427.53;;;15.44;38.95
16331;BME280;8275;48.206;16.340;2024-03-08T12:30:47;99428.59;;;15.43;39.13
16331;BME280;8275;48.206;16.340;2024-03-08T12:33:16;99433.06;;;15.44;39.21
16331;BME280;8275;48.206;16.340;2024-03-08T12:35:51;99417.88;;;15.47;38.92
16331;BME280;8275;48.206;16.340;2024-03-08T12:38:23;99416.72;;;15.53;39.20
16331;BME280;8275;48.206;16.340;2024-03-08T12:40:59;99424.16;;;15.53;39.12
16331;BME280;8275;48.206;16.340;2024-03-08T12:43:27;99417.16;;;15.70;37.38
16331;BME280;8275;48.206;16.340;2024-03-08T12:45:59;99409.16;;;15.69;38.24
16331;BME280;8275;48.206;16.340;2024-03-08T12:48:27;99413.28;;;15.71;38.35
16331;BME280;8275;48.206;16.340;2024-03-08T12:50:56;99417.97;;;15.71;38.61
16331;BME280;8275;48.206;16.340;2024-03-08T12:53:24;99417.16;;;15.70;38.54
16331;BME280;8275;48.206;16.340;2024-03-08T12:55:57;99413.59;;;15.70;38.54
16331;BME280;8275;48.206;16.340;2024-03-08T12:58:26;99412.75;;;15.69;38.40
16331;BME280;8275;48.206;16.340;2024-03-08T13:00:54;99411.00;;;15.83;37.04
16331;BME280;8275;48.206;16.340;2024-03-08T13:03:23;99404.94;;;15.81;37.78
16331;BME280;8275;48.206;16.340;2024-03-08T13:05:52;99407.34;;;15.93;37.96
16331;BME280;8275;48.206;16.340;2024-03-08T13:08:20;99401.44;;;16.38;38.18
16331;BME280;8275;48.206;16.340;2024-03-08T13:10:51;99401.63;;;16.99;38.15
16331;BME280;8275;48.206;16.340;2024-03-08T13:13:22;99393.31;;;17.41;37.57
16331;BME280;8275;48.206;16.340;2024-03-08T13:15:52;99397.50;;;17.63;37.23
16331;BME280;8275;48.206;16.340;2024-03-08T13:18:20;99390.00;;;17.82;37.06